sensor_id;sensor_type;location;lat;lon;timestamp;P1;durP1;ratioP1;P2;durP2;ratioP2
60494;SDS011;46342;49.046;11.920;2023-04-16T00:00:38;9.02;;;7.55;;
60494;SDS011;46342;49.046;11.920;2023-04-16T00:03:04;12.77;;;9.73;;
60494;SDS011;46342;49.046;11.920;2023-04-16T00:05:29;12.45;;;8.50;;
60494;SDS011;46342;49.046;11.920;2023-04-16T00:07:55;7.80;;;5.78;;
60494;SDS011;46342;49.046;11.920;2023-04-16T00:10:20;13.10;;;8.75;;
60494;SDS011;46342;49.046;11.920;2023-04-16T00:12:46;9.38;;;7.53;;
60494;SDS011;46342;49.046;11.920;2023-04-16T00:15:12;15.48;;;10.43;;
60494;SDS011;46342;49.046;11.920;2023-04-16T00:17:37;14.00;;;10.15;;
60494;SDS011;46342;49.046;11.920;2023-04-16T00:20:03;15.43;;;11.25;;
60494;SDS011;46342;49.046;11.920;2023-04-16T00:22:29;13.13;;;10.20;;
60494;SDS011;46342;49.046;11.920;2023-04-16T00:24:55;37.28;;;20.02;;
60494;SDS011;46342;49.046;11.920;2023-04-16T00:27:20;39.92;;;19.88;;
60494;SDS011;46342;49.046;11.920;2023-04-16T00:29:46;40.40;;;21.30;;
60494;SDS011;46342;49.046;11.920;2023-04-16T00:32:12;22.05;;;13.35;;
60494;SDS011;46342;49.046;11.920;2023-04-16T00:34:37;37.92;;;20.63;;
60494;SDS011;46342;49.046;11.920;2023-04-16T00:37:03;41.40;;;17.80;;
60494;SDS011;46342;49.046;11.920;2023-04-16T00:39:28;44.45;;;20.02;;
60494;SDS011;46342;49.046;11.920;2023-04-16T00:41:54;40.20;;;17.83;;
60494;SDS011;46342;49.046;11.920;2023-04-16T00:44:20;18.38;;;11.30;;
60494;SDS011;46342;49.046;11.920;2023-04-16T00:46:45;12.70;;;8.95;;
60494;SDS011;46342;49.046;11.920;2023-04-16T00:49:11;10.63;;;7.32;;
60494;SDS011;46342;49.046;11.920;2023-04-16T00:51:36;6.72;;;5.22;;
60494;SDS011;46342;49.046;11.920;2023-04-16T00:54:02;7.70;;;4.32;;
60494;SDS011;46342;49.046;11.920;2023-04-16T00:56:28;3.88;;;3.28;;
60494;SDS011;46342;49.046;11.920;2023-04-16T00:58:54;3.05;;;2.65;;
60494;SDS011;46342;49.046;11.920;2023-04-16T01:01:20;3.17;;;2.60;;
60494;SDS011;46342;49.046;11.920;2023-04-16T01:03:47;2.70;;;2.25;;
60494;SDS011;46342;49.046;11.920;2023-04-16T01:06:14;2.45;;;2.20;;
60494;SDS011;46342;49.046;11.920;2023-04-16T01:08:41;2.80;;;1.92;;
60494;SDS011;46342;49.046;11.920;2023-04-16T01:11:07;3.17;;;2.20;;
60494;SDS011;46342;49.046;11.920;2023-04-16T01:13:33;2.15;;;1.77;;
60494;SDS011;46342;49.046;11.920;2023-04-16T01:16:03;3.03;;;1.83;;
60494;SDS011;46342;49.046;11.920;2023-04-16T01:18:33;2.05;;;1.83;;
60494;SDS011;46342;49.046;11.920;2023-04-16T01:20:59;2.22;;;1.80;;
60494;SDS011;46342;49.046;11.920;2023-04-16T01:23:25;1.70;;;1.60;;
60494;SDS011;46342;49.046;11.920;2023-04-16T01:25:50;2.45;;;1.55;;
60494;SDS011;46342;49.046;11.920;2023-04-16T01:28:16;2.38;;;1.60;;
60494;SDS011;46342;49.046;11.920;2023-04-16T01:30:42;1.60;;;1.42;;
60494;SDS011;46342;49.046;11.920;2023-04-16T01:33:11;1.77;;;1.42;;
60494;SDS011;46342;49.046;11.920;2023-04-16T01:35:37;2.28;;;1.70;;
60494;SDS011;46342;49.046;11.920;2023-04-16T01:38:04;1.75;;;1.52;;
60494;SDS011;46342;49.046;11.920;2023-04-16T01:40:32;1.75;;;1.50;;
60494;SDS011;46342;49.046;11.920;2023-04-16T01:43:01;1.38;;;1.27;;
60494;SDS011;46342;49.046;11.920;2023-04-16T01:45:27;1.73;;;1.45;;
60494;SDS011;46342;49.046;11.920;2023-04-16T01:47:53;1.70;;;1.40;;
60494;SDS011;46342;49.046;11.920;2023-04-16T01:50:19;1.20;;;1.10;;
60494;SDS011;46342;49.046;11.920;2023-04-16T01:52:45;1.67;;;1.20;;
60494;SDS011;46342;49.046;11.920;2023-04-16T01:55:11;1.60;;;1.50;;
60494;SDS011;46342;49.046;11.920;2023-04-16T01:57:37;1.65;;;1.38;;
60494;SDS011;46342;49.046;11.920;2023-04-16T02:00:03;1.35;;;1.20;;
60494;SDS011;46342;49.046;11.920;2023-04-16T02:02:29;1.50;;;1.40;;
60494;SDS011;46342;49.046;11.920;2023-04-16T02:04:55;1.20;;;1.10;;
60494;SDS011;46342;49.046;11.920;2023-04-16T02:07:21;1.55;;;1.20;;
60494;SDS011;46342;49.046;11.920;2023-04-16T02:09:48;1.40;;;1.27;;
60494;SDS011;46342;49.046;11.920;2023-04-16T02:12:14;1.40;;;1.30;;
60494;SDS011;46342;49.046;11.920;2023-04-16T02:14:40;1.67;;;1.30;;
60494;SDS011;46342;49.046;11.920;2023-04-16T02:17:06;1.45;;;1.35;;
60494;SDS011;46342;49.046;11.920;2023-04-16T02:19:31;1.40;;;1.30;;
60494;SDS011;46342;49.046;11.920;2023-04-16T02:21:57;1.40;;;1.25;;
60494;SDS011;46342;49.046;11.920;2023-04-16T02:24:22;1.33;;;1.10;;
60494;SDS011;46342;49.046;11.920;2023-04-16T02:26:48;1.30;;;1.20;;
60494;SDS011;46342;49.046;11.920;2023-04-16T02:29:13;1.27;;;1.17;;
60494;SDS011;46342;49.046;11.920;2023-04-16T02:31:40;1.10;;;1.00;;
60494;SDS011;46342;49.046;11.920;2023-04-16T02:34:06;1.23;;;1.13;;
60494;SDS011;46342;49.046;11.920;2023-04-16T02:36:31;1.27;;;1.10;;
60494;SDS011;46342;49.046;11.920;2023-04-16T02:38:58;0.82;;;0.80;;
60494;SDS011;46342;49.046;11.920;2023-04-16T02:41:24;1.48;;;1.25;;
60494;SDS011;46342;49.046;11.920;2023-04-16T02:43:49;1.20;;;1.10;;
60494;SDS011;46342;49.046;11.920;2023-04-16T02:46:15;1.17;;;1.08;;
60494;SDS011;46342;49.046;11.920;2023-04-16T02:48:40;0.88;;;0.88;;
60494;SDS011;46342;49.046;11.920;2023-04-16T02:51:06;1.10;;;0.98;;
60494;SDS011;46342;49.046;11.920;2023-04-16T02:53:32;1.20;;;1.10;;
60494;SDS011;46342;49.046;11.920;2023-04-16T02:55:57;1.30;;;1.08;;
60494;SDS011;46342;49.046;11.920;2023-04-16T02:58:24;1.08;;;0.98;;
60494;SDS011;46342;49.046;11.920;2023-04-16T03:00:53;1.13;;;0.95;;
60494;SDS011;46342;49.046;11.920;2023-04-16T03:03:19;1.13;;;1.02;;
60494;SDS011;46342;49.046;11.920;2023-04-16T03:05:46;1.05;;;1.00;;
60494;SDS011;46342;49.046;11.920;2023-04-16T03:08:12;1.00;;;0.90;;
60494;SDS011;46342;49.046;11.920;2023-04-16T03:10:37;0.85;;;0.85;;
60494;SDS011;46342;49.046;11.920;2023-04-16T03:13:03;1.27;;;1.17;;
60494;SDS011;46342;49.046;11.920;2023-04-16T03:15:29;0.80;;;0.80;;
60494;SDS011;46342;49.046;11.920;2023-04-16T03:17:55;0.98;;;0.90;;
60494;SDS011;46342;49.046;11.920;2023-04-16T03:20:21;1.65;;;1.10;;
60494;SDS011;46342;49.046;11.920;2023-04-16T03:22:46;1.38;;;0.93;;
60494;SDS011;46342;49.046;11.920;2023-04-16T03:25:12;1.08;;;0.98;;
60494;SDS011;46342;49.046;11.920;2023-04-16T03:27:38;1.15;;;1.05;;
60494;SDS011;46342;49.046;11.920;2023-04-16T03:30:05;1.17;;;1.08;;
60494;SDS011;46342;49.046;11.920;2023-04-16T03:32:37;1.40;;;1.05;;
60494;SDS011;46342;49.046;11.920;2023-04-16T03:35:03;1.13;;;1.02;;
60494;SDS011;46342;49.046;11.920;2023-04-16T03:37:30;1.00;;;0.90;;
60494;SDS011;46342;49.046;11.920;2023-04-16T03:39:55;1.15;;;1.05;;
60494;SDS011;46342;49.046;11.920;2023-04-16T03:42:21;1.00;;;0.90;;
60494;SDS011;46342;49.046;11.920;2023-04-16T03:44:47;1.00;;;0.90;;
60494;SDS011;46342;49.046;11.920;2023-04-16T03:47:12;1.25;;;1.15;;
60494;SDS011;46342;49.046;11.920;2023-04-16T03:49:38;1.30;;;1.20;;
60494;SDS011;46342;49.046;11.920;2023-04-16T03:52:03;1.42;;;1.10;;
60494;SDS011;46342;49.046;11.920;2023-04-16T03:54:29;1.75;;;1.00;;
60494;SDS011;46342;49.046;11.920;2023-04-16T03:56:55;1.30;;;1.20;;
60494;SDS011;46342;49.046;11.920;2023-04-16T03:59:21;1.88;;;1.40;;
60494;SDS011;46342;49.046;11.920;2023-04-16T04:01:47;1.13;;;1.00;;
60494;SDS011;46342;49.046;11.920;2023-04-16T04:04:12;1.30;;;1.20;;
60494;SDS011;46342;49.046;11.920;2023-04-16T04:06:39;1.15;;;1.05;;
60494;SDS011;46342;49.046;11.920;2023-04-16T04:09:04;1.17;;;1.08;;
60494;SDS011;46342;49.046;11.920;2023-04-16T04:11:30;0.93;;;0.93;;
60494;SDS011;46342;49.046;11.920;2023-04-16T04:13:56;1.13;;;1.00;;
60494;SDS011;46342;49.046;11.920;2023-04-16T04:16:21;2.42;;;1.20;;
60494;SDS011;46342;49.046;11.920;2023-04-16T04:18:47;1.85;;;1.30;;
60494;SDS011;46342;49.046;11.920;2023-04-16T04:21:12;1.30;;;1.20;;
60494;SDS011;46342;49.046;11.920;2023-04-16T04:23:38;1.27;;;1.17;;
60494;SDS011;46342;49.046;11.920;2023-04-16T04:26:05;1.65;;;1.30;;
60494;SDS011;46342;49.046;11.920;2023-04-16T04:28:31;1.88;;;1.65;;
60494;SDS011;46342;49.046;11.920;2023-04-16T04:30:57;1.65;;;1.42;;
60494;SDS011;46342;49.046;11.920;2023-04-16T04:33:24;1.27;;;1.17;;
60494;SDS011;46342;49.046;11.920;2023-04-16T04:35:50;1.60;;;1.40;;
60494;SDS011;46342;49.046;11.920;2023-04-16T04:38:16;2.17;;;1.27;;
60494;SDS011;46342;49.046;11.920;2023-04-16T04:40:44;1.02;;;0.95;;
60494;SDS011;46342;49.046;11.920;2023-04-16T04:43:10;1.10;;;1.00;;
60494;SDS011;46342;49.046;11.920;2023-04-16T04:45:35;0.95;;;0.95;;
60494;SDS011;46342;49.046;11.920;2023-04-16T04:48:01;1.05;;;0.98;;
60494;SDS011;46342;49.046;11.920;2023-04-16T04:50:27;1.10;;;1.02;;
60494;SDS011;46342;49.046;11.920;2023-04-16T04:52:52;1.40;;;1.30;;
60494;SDS011;46342;49.046;11.920;2023-04-16T04:55:18;1.20;;;1.10;;
60494;SDS011;46342;49.046;11.920;2023-04-16T04:57:43;1.00;;;1.00;;
60494;SDS011;46342;49.046;11.920;2023-04-16T05:00:09;1.10;;;1.00;;
60494;SDS011;46342;49.046;11.920;2023-04-16T05:02:35;1.00;;;1.00;;
60494;SDS011;46342;49.046;11.920;2023-04-16T05:05:01;1.20;;;1.10;;
60494;SDS011;46342;49.046;11.920;2023-04-16T05:07:27;0.90;;;0.90;;
60494;SDS011;46342;49.046;11.920;2023-04-16T05:09:52;1.48;;;1.25;;
60494;SDS011;46342;49.046;11.920;2023-04-16T05:12:18;1.27;;;1.17;;
60494;SDS011;46342;49.046;11.920;2023-04-16T05:14:44;1.10;;;1.00;;
60494;SDS011;46342;49.046;11.920;2023-04-16T05:17:09;1.10;;;1.02;;
60494;SDS011;46342;49.046;11.920;2023-04-16T05:19:35;1.33;;;1.20;;
60494;SDS011;46342;49.046;11.920;2023-04-16T05:22:01;1.35;;;1.25;;
60494;SDS011;46342;49.046;11.920;2023-04-16T05:24:27;1.25;;;1.10;;
60494;SDS011;46342;49.046;11.920;2023-04-16T05:26:53;1.58;;;1.27;;
60494;SDS011;46342;49.046;11.920;2023-04-16T05:29:18;0.90;;;0.90;;
60494;SDS011;46342;49.046;11.920;2023-04-16T05:31:44;1.10;;;0.95;;
60494;SDS011;46342;49.046;11.920;2023-04-16T05:34:10;1.20;;;1.10;;
60494;SDS011;46342;49.046;11.920;2023-04-16T05:36:36;1.30;;;1.20;;
60494;SDS011;46342;49.046;11.920;2023-04-16T05:39:01;1.33;;;1.23;;
60494;SDS011;46342;49.046;11.920;2023-04-16T05:41:27;1.48;;;1.23;;
60494;SDS011;46342;49.046;11.920;2023-04-16T05:43:53;1.40;;;1.25;;
60494;SDS011;46342;49.046;11.920;2023-04-16T05:46:18;1.40;;;1.30;;
60494;SDS011;46342;49.046;11.920;2023-04-16T05:48:44;2.22;;;1.27;;
60494;SDS011;46342;49.046;11.920;2023-04-16T05:51:10;0.98;;;0.98;;
60494;SDS011;46342;49.046;11.920;2023-04-16T05:53:35;1.30;;;1.20;;
60494;SDS011;46342;49.046;11.920;2023-04-16T05:56:01;1.20;;;1.10;;
60494;SDS011;46342;49.046;11.920;2023-04-16T05:58:26;1.10;;;1.00;;
60494;SDS011;46342;49.046;11.920;2023-04-16T06:00:52;1.42;;;1.30;;
60494;SDS011;46342;49.046;11.920;2023-04-16T06:03:18;1.17;;;1.08;;
60494;SDS011;46342;49.046;11.920;2023-04-16T06:05:43;1.20;;;1.10;;
60494;SDS011;46342;49.046;11.920;2023-04-16T06:08:09;1.17;;;1.08;;
60494;SDS011;46342;49.046;11.920;2023-04-16T06:10:35;0.93;;;0.93;;
60494;SDS011;46342;49.046;11.920;2023-04-16T06:13:00;0.85;;;0.85;;
60494;SDS011;46342;49.046;11.920;2023-04-16T06:15:26;0.85;;;0.85;;
60494;SDS011;46342;49.046;11.920;2023-04-16T06:17:51;1.20;;;1.10;;
60494;SDS011;46342;49.046;11.920;2023-04-16T06:20:18;0.98;;;0.95;;
60494;SDS011;46342;49.046;11.920;2023-04-16T06:22:43;1.10;;;1.00;;
60494;SDS011;46342;49.046;11.920;2023-04-16T06:25:09;1.10;;;1.00;;
60494;SDS011;46342;49.046;11.920;2023-04-16T06:27:35;1.90;;;1.10;;
60494;SDS011;46342;49.046;11.920;2023-04-16T06:30:01;0.75;;;0.75;;
60494;SDS011;46342;49.046;11.920;2023-04-16T06:32:26;1.08;;;0.98;;
60494;SDS011;46342;49.046;11.920;2023-04-16T06:34:52;1.15;;;1.05;;
60494;SDS011;46342;49.046;11.920;2023-04-16T06:37:17;1.25;;;0.90;;
60494;SDS011;46342;49.046;11.920;2023-04-16T06:39:43;1.00;;;0.90;;
60494;SDS011;46342;49.046;11.920;2023-04-16T06:42:09;1.17;;;1.08;;
60494;SDS011;46342;49.046;11.920;2023-04-16T06:44:34;1.00;;;0.93;;
60494;SDS011;46342;49.046;11.920;2023-04-16T06:47:00;0.88;;;0.88;;
60494;SDS011;46342;49.046;11.920;2023-04-16T06:49:26;0.77;;;0.77;;
60494;SDS011;46342;49.046;11.920;2023-04-16T06:51:51;0.80;;;0.80;;
60494;SDS011;46342;49.046;11.920;2023-04-16T06:54:17;1.02;;;0.80;;
60494;SDS011;46342;49.046;11.920;2023-04-16T06:56:43;0.82;;;0.82;;
60494;SDS011;46342;49.046;11.920;2023-04-16T06:59:09;1.25;;;0.90;;
60494;SDS011;46342;49.046;11.920;2023-04-16T07:01:34;0.95;;;0.90;;
60494;SDS011;46342;49.046;11.920;2023-04-16T07:04:00;0.90;;;0.80;;
60494;SDS011;46342;49.046;11.920;2023-04-16T07:06:26;1.10;;;1.00;;
60494;SDS011;46342;49.046;11.920;2023-04-16T07:08:51;1.00;;;0.90;;
60494;SDS011;46342;49.046;11.920;2023-04-16T07:11:17;1.05;;;0.95;;
60494;SDS011;46342;49.046;11.920;2023-04-16T07:13:43;0.70;;;0.70;;
60494;SDS011;46342;49.046;11.920;2023-04-16T07:16:08;0.80;;;0.80;;
60494;SDS011;46342;49.046;11.920;2023-04-16T07:18:34;0.65;;;0.65;;
60494;SDS011;46342;49.046;11.920;2023-04-16T07:21:00;0.80;;;0.80;;
60494;SDS011;46342;49.046;11.920;2023-04-16T07:23:25;1.20;;;0.80;;
60494;SDS011;46342;49.046;11.920;2023-04-16T07:25:51;1.23;;;0.80;;
60494;SDS011;46342;49.046;11.920;2023-04-16T07:28:20;1.70;;;0.90;;
60494;SDS011;46342;49.046;11.920;2023-04-16T07:30:46;0.70;;;0.70;;
60494;SDS011;46342;49.046;11.920;2023-04-16T07:33:11;0.70;;;0.70;;
60494;SDS011;46342;49.046;11.920;2023-04-16T07:35:37;1.45;;;0.88;;
60494;SDS011;46342;49.046;11.920;2023-04-16T07:38:03;1.83;;;0.98;;
60494;SDS011;46342;49.046;11.920;2023-04-16T07:40:28;1.90;;;1.30;;
60494;SDS011;46342;49.046;11.920;2023-04-16T07:42:54;1.45;;;1.08;;
60494;SDS011;46342;49.046;11.920;2023-04-16T07:45:20;1.42;;;1.27;;
60494;SDS011;46342;49.046;11.920;2023-04-16T07:47:45;0.80;;;0.80;;
60494;SDS011;46342;49.046;11.920;2023-04-16T07:50:11;1.00;;;0.90;;
60494;SDS011;46342;49.046;11.920;2023-04-16T07:52:37;1.20;;;0.90;;
60494;SDS011;46342;49.046;11.920;2023-04-16T07:55:05;1.13;;;1.00;;
60494;SDS011;46342;49.046;11.920;2023-04-16T07:57:32;1.02;;;0.90;;
60494;SDS011;46342;49.046;11.920;2023-04-16T07:59:57;1.20;;;0.80;;
60494;SDS011;46342;49.046;11.920;2023-04-16T08:02:23;0.73;;;0.73;;
60494;SDS011;46342;49.046;11.920;2023-04-16T08:04:49;0.75;;;0.75;;
60494;SDS011;46342;49.046;11.920;2023-04-16T08:07:15;0.98;;;0.60;;
60494;SDS011;46342;49.046;11.920;2023-04-16T08:09:46;0.50;;;0.50;;
60494;SDS011;46342;49.046;11.920;2023-04-16T08:12:13;1.17;;;0.70;;
60494;SDS011;46342;49.046;11.920;2023-04-16T08:14:40;1.40;;;1.20;;
60494;SDS011;46342;49.046;11.920;2023-04-16T08:17:05;1.15;;;1.00;;
60494;SDS011;46342;49.046;11.920;2023-04-16T08:19:31;0.80;;;0.80;;
60494;SDS011;46342;49.046;11.920;2023-04-16T08:21:57;1.20;;;0.80;;
60494;SDS011;46342;49.046;11.920;2023-04-16T08:24:23;6.32;;;1.20;;
60494;SDS011;46342;49.046;11.920;2023-04-16T08:26:48;1.67;;;1.05;;
60494;SDS011;46342;49.046;11.920;2023-04-16T08:29:14;1.67;;;0.98;;
60494;SDS011;46342;49.046;11.920;2023-04-16T08:31:39;1.27;;;1.17;;
60494;SDS011;46342;49.046;11.920;2023-04-16T08:34:05;1.45;;;1.17;;
60494;SDS011;46342;49.046;11.920;2023-04-16T08:36:31;1.23;;;1.08;;
60494;SDS011;46342;49.046;11.920;2023-04-16T08:38:57;1.25;;;1.15;;
60494;SDS011;46342;49.046;11.920;2023-04-16T08:41:22;1.77;;;0.90;;
60494;SDS011;46342;49.046;11.920;2023-04-16T08:43:49;1.20;;;1.10;;
60494;SDS011;46342;49.046;11.920;2023-04-16T08:46:19;1.23;;;1.00;;
60494;SDS011;46342;49.046;11.920;2023-04-16T08:48:48;1.15;;;1.05;;
60494;SDS011;46342;49.046;11.920;2023-04-16T08:51:22;1.10;;;0.98;;
60494;SDS011;46342;49.046;11.920;2023-04-16T08:53:51;1.30;;;1.10;;
60494;SDS011;46342;49.046;11.920;2023-04-16T08:56:24;1.02;;;0.90;;
60494;SDS011;46342;49.046;11.920;2023-04-16T08:58:50;0.90;;;0.80;;
60494;SDS011;46342;49.046;11.920;2023-04-16T09:01:19;0.80;;;0.80;;
60494;SDS011;46342;49.046;11.920;2023-04-16T09:03:48;0.63;;;0.60;;
60494;SDS011;46342;49.046;11.920;2023-04-16T09:06:14;0.70;;;0.68;;
60494;SDS011;46342;49.046;11.920;2023-04-16T09:08:40;0.70;;;0.70;;
60494;SDS011;46342;49.046;11.920;2023-04-16T09:13:33;0.50;;;0.50;;
60494;SDS011;46342;49.046;11.920;2023-04-16T09:16:01;0.60;;;0.60;;
60494;SDS011;46342;49.046;11.920;2023-04-16T09:18:27;0.93;;;0.82;;
60494;SDS011;46342;49.046;11.920;2023-04-16T09:20:54;1.77;;;0.80;;
60494;SDS011;46342;49.046;11.920;2023-04-16T09:23:21;0.73;;;0.73;;
60494;SDS011;46342;49.046;11.920;2023-04-16T09:25:46;1.20;;;1.08;;
60494;SDS011;46342;49.046;11.920;2023-04-16T09:28:12;0.95;;;0.93;;
60494;SDS011;46342;49.046;11.920;2023-04-16T09:31:07;1.00;;;0.90;;
60494;SDS011;46342;49.046;11.920;2023-04-16T09:33:34;0.82;;;0.82;;
60494;SDS011;46342;49.046;11.920;2023-04-16T09:35:59;1.13;;;0.80;;
60494;SDS011;46342;49.046;11.920;2023-04-16T09:38:25;0.98;;;0.90;;
60494;SDS011;46342;49.046;11.920;2023-04-16T09:41:09;2.72;;;1.60;;
60494;SDS011;46342;49.046;11.920;2023-04-16T09:43:35;1.50;;;1.38;;
60494;SDS011;46342;49.046;11.920;2023-04-16T09:46:01;2.05;;;1.20;;
60494;SDS011;46342;49.046;11.920;2023-04-16T09:48:32;1.20;;;1.10;;
60494;SDS011;46342;49.046;11.920;2023-04-16T09:50:58;0.88;;;0.88;;
60494;SDS011;46342;49.046;11.920;2023-04-16T09:53:28;0.98;;;0.80;;
60494;SDS011;46342;49.046;11.920;2023-04-16T09:55:55;1.60;;;1.23;;
60494;SDS011;46342;49.046;11.920;2023-04-16T09:58:22;1.42;;;1.33;;
60494;SDS011;46342;49.046;11.920;2023-04-16T10:00:48;1.13;;;0.98;;
60494;SDS011;46342;49.046;11.920;2023-04-16T10:03:23;1.48;;;0.80;;
60494;SDS011;46342;49.046;11.920;2023-04-16T10:05:53;1.40;;;0.98;;
60494;SDS011;46342;49.046;11.920;2023-04-16T10:08:19;1.25;;;1.10;;
60494;SDS011;46342;49.046;11.920;2023-04-16T10:10:45;1.10;;;0.95;;
60494;SDS011;46342;49.046;11.920;2023-04-16T10:13:10;1.00;;;0.90;;
60494;SDS011;46342;49.046;11.920;2023-04-16T10:15:41;0.90;;;0.90;;
60494;SDS011;46342;49.046;11.920;2023-04-16T10:18:07;0.80;;;0.80;;
60494;SDS011;46342;49.046;11.920;2023-04-16T10:20:33;0.80;;;0.80;;
60494;SDS011;46342;49.046;11.920;2023-04-16T10:22:59;0.90;;;0.90;;
60494;SDS011;46342;49.046;11.920;2023-04-16T10:25:25;0.80;;;0.80;;
60494;SDS011;46342;49.046;11.920;2023-04-16T10:27:52;1.00;;;0.90;;
60494;SDS011;46342;49.046;11.920;2023-04-16T10:30:19;0.98;;;0.90;;
60494;SDS011;46342;49.046;11.920;2023-04-16T10:32:45;0.73;;;0.73;;
60494;SDS011;46342;49.046;11.920;2023-04-16T10:35:16;0.93;;;0.90;;
60494;SDS011;46342;49.046;11.920;2023-04-16T10:37:43;2.85;;;0.82;;
60494;SDS011;46342;49.046;11.920;2023-04-16T10:40:25;0.82;;;0.82;;
60494;SDS011;46342;49.046;11.920;2023-04-16T10:42:57;1.05;;;0.90;;
60494;SDS011;46342;49.046;11.920;2023-04-16T10:45:31;1.05;;;0.90;;
60494;SDS011;46342;49.046;11.920;2023-04-16T10:48:03;0.88;;;0.85;;
60494;SDS011;46342;49.046;11.920;2023-04-16T10:50:34;0.82;;;0.82;;
60494;SDS011;46342;49.046;11.920;2023-04-16T10:53:20;0.73;;;0.73;;
60494;SDS011;46342;49.046;11.920;2023-04-16T10:56:23;1.00;;;0.90;;
60494;SDS011;46342;49.046;11.920;2023-04-16T10:58:48;1.23;;;0.90;;
60494;SDS011;46342;49.046;11.920;2023-04-16T11:01:14;0.80;;;0.80;;
60494;SDS011;46342;49.046;11.920;2023-04-16T11:03:41;0.80;;;0.80;;
60494;SDS011;46342;49.046;11.920;2023-04-16T11:06:12;1.20;;;0.93;;
60494;SDS011;46342;49.046;11.920;2023-04-16T11:08:45;0.73;;;0.73;;
60494;SDS011;46342;49.046;11.920;2023-04-16T11:11:11;0.80;;;0.80;;
60494;SDS011;46342;49.046;11.920;2023-04-16T11:13:37;1.42;;;0.90;;
60494;SDS011;46342;49.046;11.920;2023-04-16T11:16:07;1.10;;;0.80;;
60494;SDS011;46342;49.046;11.920;2023-04-16T11:18:32;0.80;;;0.80;;
60494;SDS011;46342;49.046;11.920;2023-04-16T11:20:58;0.77;;;0.77;;
60494;SDS011;46342;49.046;11.920;2023-04-16T11:23:24;0.82;;;0.82;;
60494;SDS011;46342;49.046;11.920;2023-04-16T11:25:49;0.70;;;0.70;;
60494;SDS011;46342;49.046;11.920;2023-04-16T11:28:20;0.90;;;0.90;;
60494;SDS011;46342;49.046;11.920;2023-04-16T11:30:59;0.80;;;0.80;;
60494;SDS011;46342;49.046;11.920;2023-04-16T11:33:34;0.90;;;0.90;;
60494;SDS011;46342;49.046;11.920;2023-04-16T11:36:01;1.70;;;1.00;;
60494;SDS011;46342;49.046;11.920;2023-04-16T11:38:33;0.68;;;0.68;;
60494;SDS011;46342;49.046;11.920;2023-04-16T11:43:30;0.70;;;0.70;;
60494;SDS011;46342;49.046;11.920;2023-04-16T11:46:00;2.17;;;0.80;;
60494;SDS011;46342;49.046;11.920;2023-04-16T11:48:46;0.70;;;0.70;;
60494;SDS011;46342;49.046;11.920;2023-04-16T11:51:15;0.95;;;0.95;;
60494;SDS011;46342;49.046;11.920;2023-04-16T11:53:47;0.80;;;0.80;;
60494;SDS011;46342;49.046;11.920;2023-04-16T11:56:24;1.38;;;0.90;;
60494;SDS011;46342;49.046;11.920;2023-04-16T11:59:09;0.80;;;0.80;;
60494;SDS011;46342;49.046;11.920;2023-04-16T12:01:36;1.85;;;0.95;;
60494;SDS011;46342;49.046;11.920;2023-04-16T12:04:03;0.80;;;0.77;;
60494;SDS011;46342;49.046;11.920;2023-04-16T12:06:28;0.60;;;0.60;;
60494;SDS011;46342;49.046;11.920;2023-04-16T12:08:56;0.80;;;0.80;;
60494;SDS011;46342;49.046;11.920;2023-04-16T12:11:36;1.17;;;1.05;;
60494;SDS011;46342;49.046;11.920;2023-04-16T12:14:10;0.90;;;0.90;;
60494;SDS011;46342;49.046;11.920;2023-04-16T12:16:37;0.77;;;0.77;;
60494;SDS011;46342;49.046;11.920;2023-04-16T12:19:03;0.77;;;0.77;;
60494;SDS011;46342;49.046;11.920;2023-04-16T12:21:38;1.27;;;0.82;;
60494;SDS011;46342;49.046;11.920;2023-04-16T12:24:05;0.70;;;0.70;;
60494;SDS011;46342;49.046;11.920;2023-04-16T12:26:36;0.80;;;0.80;;
60494;SDS011;46342;49.046;11.920;2023-04-16T12:29:16;0.98;;;0.88;;
60494;SDS011;46342;49.046;11.920;2023-04-16T12:31:42;1.08;;;1.00;;
60494;SDS011;46342;49.046;11.920;2023-04-16T12:34:08;0.63;;;0.63;;
60494;SDS011;46342;49.046;11.920;2023-04-16T12:36:37;0.82;;;0.77;;
60494;SDS011;46342;49.046;11.920;2023-04-16T12:39:02;0.70;;;0.70;;
60494;SDS011;46342;49.046;11.920;2023-04-16T12:41:29;0.63;;;0.63;;
60494;SDS011;46342;49.046;11.920;2023-04-16T12:44:04;0.88;;;0.88;;
60494;SDS011;46342;49.046;11.920;2023-04-16T12:46:35;0.80;;;0.80;;
60494;SDS011;46342;49.046;11.920;2023-04-16T12:49:04;0.80;;;0.80;;
60494;SDS011;46342;49.046;11.920;2023-04-16T12:51:31;0.73;;;0.73;;
60494;SDS011;46342;49.046;11.920;2023-04-16T12:53:58;0.77;;;0.77;;
60494;SDS011;46342;49.046;11.920;2023-04-16T12:56:25;0.70;;;0.70;;
60494;SDS011;46342;49.046;11.920;2023-04-16T12:58:51;0.82;;;0.80;;
60494;SDS011;46342;49.046;11.920;2023-04-16T13:01:19;0.90;;;0.80;;
60494;SDS011;46342;49.046;11.920;2023-04-16T13:03:45;1.30;;;0.80;;
60494;SDS011;46342;49.046;11.920;2023-04-16T13:06:11;0.77;;;0.77;;
60494;SDS011;46342;49.046;11.920;2023-04-16T13:08:38;0.80;;;0.80;;
60494;SDS011;46342;49.046;11.920;2023-04-16T13:11:04;0.90;;;0.90;;
60494;SDS011;46342;49.046;11.920;2023-04-16T13:13:30;0.77;;;0.77;;
60494;SDS011;46342;49.046;11.920;2023-04-16T13:15:56;1.95;;;0.90;;
60494;SDS011;46342;49.046;11.920;2023-04-16T13:18:22;2.22;;;0.80;;
60494;SDS011;46342;49.046;11.920;2023-04-16T13:20:48;0.60;;;0.60;;
60494;SDS011;46342;49.046;11.920;2023-04-16T13:23:14;0.55;;;0.55;;
60494;SDS011;46342;49.046;11.920;2023-04-16T13:25:40;0.93;;;0.90;;
60494;SDS011;46342;49.046;11.920;2023-04-16T13:28:06;1.42;;;1.33;;
60494;SDS011;46342;49.046;11.920;2023-04-16T13:30:31;1.45;;;1.35;;
60494;SDS011;46342;49.046;11.920;2023-04-16T13:32:57;1.55;;;1.45;;
60494;SDS011;46342;49.046;11.920;2023-04-16T13:35:23;3.85;;;3.10;;
60494;SDS011;46342;49.046;11.920;2023-04-16T13:37:49;1.20;;;1.10;;
60494;SDS011;46342;49.046;11.920;2023-04-16T13:40:15;0.82;;;0.80;;
60494;SDS011;46342;49.046;11.920;2023-04-16T13:42:40;1.38;;;0.90;;
60494;SDS011;46342;49.046;11.920;2023-04-16T13:45:06;0.90;;;0.90;;
60494;SDS011;46342;49.046;11.920;2023-04-16T13:47:33;3.63;;;1.43;;
60494;SDS011;46342;49.046;11.920;2023-04-16T13:50:08;4.35;;;1.42;;
60494;SDS011;46342;49.046;11.920;2023-04-16T13:52:34;1.80;;;1.05;;
60494;SDS011;46342;49.046;11.920;2023-04-16T13:55:00;1.23;;;0.98;;
60494;SDS011;46342;49.046;11.920;2023-04-16T13:57:26;1.45;;;0.90;;
60494;SDS011;46342;49.046;11.920;2023-04-16T13:59:52;0.80;;;0.80;;
60494;SDS011;46342;49.046;11.920;2023-04-16T14:02:19;3.30;;;0.80;;
60494;SDS011;46342;49.046;11.920;2023-04-16T14:04:44;0.80;;;0.70;;
60494;SDS011;46342;49.046;11.920;2023-04-16T14:07:10;1.85;;;0.70;;
60494;SDS011;46342;49.046;11.920;2023-04-16T14:09:36;1.92;;;1.58;;
60494;SDS011;46342;49.046;11.920;2023-04-16T14:12:01;1.40;;;1.30;;
60494;SDS011;46342;49.046;11.920;2023-04-16T14:14:27;1.92;;;1.30;;
60494;SDS011;46342;49.046;11.920;2023-04-16T14:16:53;1.33;;;1.10;;
60494;SDS011;46342;49.046;11.920;2023-04-16T14:19:19;2.97;;;1.40;;
60494;SDS011;46342;49.046;11.920;2023-04-16T14:21:45;2.30;;;1.88;;
60494;SDS011;46342;49.046;11.920;2023-04-16T14:24:10;1.70;;;1.60;;
60494;SDS011;46342;49.046;11.920;2023-04-16T14:26:36;1.40;;;1.30;;
60494;SDS011;46342;49.046;11.920;2023-04-16T14:29:01;2.30;;;1.20;;
60494;SDS011;46342;49.046;11.920;2023-04-16T14:31:27;0.90;;;0.88;;
60494;SDS011;46342;49.046;11.920;2023-04-16T14:33:52;1.33;;;1.02;;
60494;SDS011;46342;49.046;11.920;2023-04-16T14:36:18;1.10;;;0.93;;